sensor_id;sensor_type;location;lat;lon;timestamp;P1;durP1;ratioP1;P2;durP2;ratioP2
73593;SDS011;62064;53.406;23.500;2022-10-20T00:02:02;8.38;;;3.42;;
73593;SDS011;62064;53.406;23.500;2022-10-20T00:04:28;8.38;;;3.53;;
73593;SDS011;62064;53.406;23.500;2022-10-20T00:06:55;7.10;;;3.15;;
73593;SDS011;62064;53.406;23.500;2022-10-20T00:09:21;4.78;;;3.13;;
73593;SDS011;62064;53.406;23.500;2022-10-20T00:11:47;6.53;;;3.10;;
73593;SDS011;62064;53.406;23.500;2022-10-20T00:14:13;7.50;;;3.25;;
73593;SDS011;62064;53.406;23.500;2022-10-20T00:16:39;7.70;;;3.38;;
73593;SDS011;62064;53.406;23.500;2022-10-20T00:21:33;7.93;;;3.22;;
73593;SDS011;62064;53.406;23.500;2022-10-20T00:23:59;8.95;;;3.38;;
73593;SDS011;62064;53.406;23.500;2022-10-20T00:26:27;7.35;;;3.20;;
73593;SDS011;62064;53.406;23.500;2022-10-20T00:28:54;5.35;;;2.92;;
73593;SDS011;62064;53.406;23.500;2022-10-20T00:31:21;5.90;;;2.92;;
73593;SDS011;62064;53.406;23.500;2022-10-20T00:33:49;7.25;;;3.40;;
73593;SDS011;62064;53.406;23.500;2022-10-20T00:36:16;7.32;;;3.13;;
73593;SDS011;62064;53.406;23.500;2022-10-20T00:38:43;6.63;;;2.88;;
73593;SDS011;62064;53.406;23.500;2022-10-20T00:41:11;5.18;;;2.83;;
73593;SDS011;62064;53.406;23.500;2022-10-20T00:43:39;6.93;;;3.45;;
73593;SDS011;62064;53.406;23.500;2022-10-20T00:46:09;8.02;;;3.28;;
73593;SDS011;62064;53.406;23.500;2022-10-20T00:48:38;6.80;;;2.45;;
73593;SDS011;62064;53.406;23.500;2022-10-20T00:51:07;5.82;;;2.97;;
73593;SDS011;62064;53.406;23.500;2022-10-20T00:53:34;6.15;;;2.85;;
73593;SDS011;62064;53.406;23.500;2022-10-20T00:58:27;7.65;;;3.10;;
73593;SDS011;62064;53.406;23.500;2022-10-20T01:00:55;7.22;;;3.13;;
73593;SDS011;62064;53.406;23.500;2022-10-20T01:03:27;6.30;;;2.70;;
73593;SDS011;62064;53.406;23.500;2022-10-20T01:05:59;7.28;;;2.50;;
73593;SDS011;62064;53.406;23.500;2022-10-20T01:08:25;5.57;;;2.75;;
73593;SDS011;62064;53.406;23.500;2022-10-20T01:11:05;5.38;;;2.63;;
73593;SDS011;62064;53.406;23.500;2022-10-20T01:28:06;5.85;;;2.50;;
73593;SDS011;62064;53.406;23.500;2022-10-20T01:30:45;5.63;;;2.85;;
73593;SDS011;62064;53.406;23.500;2022-10-20T01:38:42;6.53;;;2.70;;
73593;SDS011;62064;53.406;23.500;2022-10-20T01:41:45;5.90;;;2.58;;
73593;SDS011;62064;53.406;23.500;2022-10-20T01:44:09;7.07;;;2.30;;
73593;SDS011;62064;53.406;23.500;2022-10-20T01:46:38;6.05;;;2.65;;
73593;SDS011;62064;53.406;23.500;2022-10-20T01:49:07;6.43;;;2.78;;
73593;SDS011;62064;53.406;23.500;2022-10-20T01:51:35;6.28;;;2.33;;
73593;SDS011;62064;53.406;23.500;2022-10-20T01:54:02;5.75;;;2.40;;
73593;SDS011;62064;53.406;23.500;2022-10-20T01:56:33;5.97;;;2.20;;
73593;SDS011;62064;53.406;23.500;2022-10-20T02:00:00;6.53;;;2.40;;
73593;SDS011;62064;53.406;23.500;2022-10-20T02:05:39;5.40;;;2.80;;
73593;SDS011;62064;53.406;23.500;2022-10-20T02:11:00;4.07;;;2.08;;
73593;SDS011;62064;53.406;23.500;2022-10-20T02:13:27;3.83;;;1.98;;
73593;SDS011;62064;53.406;23.500;2022-10-20T02:15:55;5.43;;;1.95;;
73593;SDS011;62064;53.406;23.500;2022-10-20T02:18:30;4.45;;;2.33;;
73593;SDS011;62064;53.406;23.500;2022-10-20T02:20:59;6.00;;;2.20;;
73593;SDS011;62064;53.406;23.500;2022-10-20T02:23:28;4.25;;;2.00;;
73593;SDS011;62064;53.406;23.500;2022-10-20T02:25:59;6.38;;;2.30;;
73593;SDS011;62064;53.406;23.500;2022-10-20T02:28:29;6.18;;;2.20;;
73593;SDS011;62064;53.406;23.500;2022-10-20T02:30:58;3.63;;;1.88;;
73593;SDS011;62064;53.406;23.500;2022-10-20T02:33:24;4.40;;;2.28;;
73593;SDS011;62064;53.406;23.500;2022-10-20T02:38:21;5.10;;;2.05;;
73593;SDS011;62064;53.406;23.500;2022-10-20T02:40:48;4.00;;;1.88;;
73593;SDS011;62064;53.406;23.500;2022-10-20T02:43:14;4.82;;;1.83;;
73593;SDS011;62064;53.406;23.500;2022-10-20T02:45:40;5.13;;;2.10;;
73593;SDS011;62064;53.406;23.500;2022-10-20T02:48:06;4.53;;;1.75;;
73593;SDS011;62064;53.406;23.500;2022-10-20T02:50:37;7.35;;;2.00;;
73593;SDS011;62064;53.406;23.500;2022-10-20T02:53:03;5.53;;;1.90;;
73593;SDS011;62064;53.406;23.500;2022-10-20T02:55:30;4.78;;;1.63;;
73593;SDS011;62064;53.406;23.500;2022-10-20T02:57:56;5.55;;;2.00;;
73593;SDS011;62064;53.406;23.500;2022-10-20T03:00:23;4.35;;;2.03;;
73593;SDS011;62064;53.406;23.500;2022-10-20T03:02:49;5.80;;;1.80;;
73593;SDS011;62064;53.406;23.500;2022-10-20T03:05:16;5.13;;;1.85;;
73593;SDS011;62064;53.406;23.500;2022-10-20T03:07:43;4.80;;;1.90;;
73593;SDS011;62064;53.406;23.500;2022-10-20T03:10:10;3.25;;;1.60;;
73593;SDS011;62064;53.406;23.500;2022-10-20T03:12:35;4.47;;;2.03;;
73593;SDS011;62064;53.406;23.500;2022-10-20T03:15:02;3.60;;;1.73;;
73593;SDS011;62064;53.406;23.500;2022-10-20T03:17:29;3.40;;;1.80;;
73593;SDS011;62064;53.406;23.500;2022-10-20T03:19:55;5.20;;;2.13;;
73593;SDS011;62064;53.406;23.500;2022-10-20T03:22:21;3.63;;;1.75;;
73593;SDS011;62064;53.406;23.500;2022-10-20T03:24:47;4.57;;;1.58;;
73593;SDS011;62064;53.406;23.500;2022-10-20T03:27:13;6.68;;;2.13;;
73593;SDS011;62064;53.406;23.500;2022-10-20T03:29:40;3.60;;;1.83;;
73593;SDS011;62064;53.406;23.500;2022-10-20T03:32:06;4.13;;;1.95;;
73593;SDS011;62064;53.406;23.500;2022-10-20T03:34:32;4.60;;;1.77;;
73593;SDS011;62064;53.406;23.500;2022-10-20T03:36:58;4.05;;;1.70;;
73593;SDS011;62064;53.406;23.500;2022-10-20T03:39:25;3.42;;;1.77;;
73593;SDS011;62064;53.406;23.500;2022-10-20T03:41:51;3.25;;;1.73;;
73593;SDS011;62064;53.406;23.500;2022-10-20T03:44:17;3.33;;;1.60;;
73593;SDS011;62064;53.406;23.500;2022-10-20T03:46:43;4.47;;;1.45;;
73593;SDS011;62064;53.406;23.500;2022-10-20T03:49:10;3.90;;;1.73;;
73593;SDS011;62064;53.406;23.500;2022-10-20T03:51:36;5.13;;;1.83;;
73593;SDS011;62064;53.406;23.500;2022-10-20T03:54:03;3.38;;;1.70;;
73593;SDS011;62064;53.406;23.500;2022-10-20T03:56:29;3.45;;;1.67;;
73593;SDS011;62064;53.406;23.500;2022-10-20T03:58:55;4.10;;;1.85;;
73593;SDS011;62064;53.406;23.500;2022-10-20T04:01:23;4.70;;;1.80;;
73593;SDS011;62064;53.406;23.500;2022-10-20T04:03:54;3.97;;;1.70;;
73593;SDS011;62064;53.406;23.500;2022-10-20T04:06:20;5.57;;;1.73;;
73593;SDS011;62064;53.406;23.500;2022-10-20T04:08:46;4.30;;;1.63;;
73593;SDS011;62064;53.406;23.500;2022-10-20T04:11:12;4.18;;;1.73;;
73593;SDS011;62064;53.406;23.500;2022-10-20T04:13:38;3.55;;;1.63;;
73593;SDS011;62064;53.406;23.500;2022-10-20T04:16:05;4.10;;;1.65;;
73593;SDS011;62064;53.406;23.500;2022-10-20T04:18:31;3.90;;;1.90;;
73593;SDS011;62064;53.406;23.500;2022-10-20T04:20:58;5.18;;;1.80;;
73593;SDS011;62064;53.406;23.500;2022-10-20T04:23:24;3.63;;;1.60;;
73593;SDS011;62064;53.406;23.500;2022-10-20T04:25:50;3.97;;;1.73;;
73593;SDS011;62064;53.406;23.500;2022-10-20T04:28:17;4.30;;;1.60;;
73593;SDS011;62064;53.406;23.500;2022-10-20T04:30:45;3.67;;;1.55;;
73593;SDS011;62064;53.406;23.500;2022-10-20T04:33:17;3.65;;;1.60;;
73593;SDS011;62064;53.406;23.500;2022-10-20T04:35:43;3.65;;;1.85;;
73593;SDS011;62064;53.406;23.500;2022-10-20T04:38:10;3.33;;;1.70;;
73593;SDS011;62064;53.406;23.500;2022-10-20T04:40:36;3.30;;;1.50;;
73593;SDS011;62064;53.406;23.500;2022-10-20T04:43:02;4.65;;;1.75;;
73593;SDS011;62064;53.406;23.500;2022-10-20T04:45:28;2.95;;;1.40;;
73593;SDS011;62064;53.406;23.500;2022-10-20T04:47:55;4.22;;;1.70;;
73593;SDS011;62064;53.406;23.500;2022-10-20T04:50:21;5.05;;;1.60;;
73593;SDS011;62064;53.406;23.500;2022-10-20T04:52:57;3.72;;;1.52;;
73593;SDS011;62064;53.406;23.500;2022-10-20T04:55:24;3.28;;;1.65;;
73593;SDS011;62064;53.406;23.500;2022-10-20T04:57:52;7.63;;;1.77;;
73593;SDS011;62064;53.406;23.500;2022-10-20T05:00:18;3.85;;;1.80;;
73593;SDS011;62064;53.406;23.500;2022-10-20T05:02:44;3.55;;;1.70;;
73593;SDS011;62064;53.406;23.500;2022-10-20T05:05:10;5.28;;;1.70;;
73593;SDS011;62064;53.406;23.500;2022-10-20T05:07:36;4.18;;;1.77;;
73593;SDS011;62064;53.406;23.500;2022-10-20T05:10:02;3.65;;;1.92;;
73593;SDS011;62064;53.406;23.500;2022-10-20T05:12:29;3.20;;;1.52;;
73593;SDS011;62064;53.406;23.500;2022-10-20T05:14:55;4.20;;;1.65;;
73593;SDS011;62064;53.406;23.500;2022-10-20T05:17:21;4.03;;;1.60;;
73593;SDS011;62064;53.406;23.500;2022-10-20T05:19:47;3.42;;;1.83;;
73593;SDS011;62064;53.406;23.500;2022-10-20T05:22:14;3.30;;;1.63;;
73593;SDS011;62064;53.406;23.500;2022-10-20T05:24:40;4.47;;;2.00;;
73593;SDS011;62064;53.406;23.500;2022-10-20T05:27:06;4.88;;;2.08;;
73593;SDS011;62064;53.406;23.500;2022-10-20T05:29:32;4.43;;;2.13;;
73593;SDS011;62064;53.406;23.500;2022-10-20T05:31:58;5.45;;;2.35;;
73593;SDS011;62064;53.406;23.500;2022-10-20T05:34:24;4.00;;;2.10;;
73593;SDS011;62064;53.406;23.500;2022-10-20T05:36:51;5.22;;;2.70;;
73593;SDS011;62064;53.406;23.500;2022-10-20T05:39:18;4.32;;;2.20;;
73593;SDS011;62064;53.406;23.500;2022-10-20T05:41:45;5.05;;;2.83;;
73593;SDS011;62064;53.406;23.500;2022-10-20T05:44:11;7.10;;;2.83;;
73593;SDS011;62064;53.406;23.500;2022-10-20T05:46:38;4.82;;;2.55;;
73593;SDS011;62064;53.406;23.500;2022-10-20T05:49:10;5.93;;;3.25;;
73593;SDS011;62064;53.406;23.500;2022-10-20T05:51:42;4.90;;;2.63;;
73593;SDS011;62064;53.406;23.500;2022-10-20T05:54:09;4.43;;;2.22;;
73593;SDS011;62064;53.406;23.500;2022-10-20T05:56:37;4.57;;;2.53;;
73593;SDS011;62064;53.406;23.500;2022-10-20T05:59:04;5.13;;;2.65;;
73593;SDS011;62064;53.406;23.500;2022-10-20T06:01:33;5.32;;;2.28;;
73593;SDS011;62064;53.406;23.500;2022-10-20T06:04:19;5.28;;;2.60;;
73593;SDS011;62064;53.406;23.500;2022-10-20T06:06:50;6.75;;;2.95;;
73593;SDS011;62064;53.406;23.500;2022-10-20T06:09:17;5.03;;;2.70;;
73593;SDS011;62064;53.406;23.500;2022-10-20T06:11:45;7.10;;;2.53;;
73593;SDS011;62064;53.406;23.500;2022-10-20T06:14:11;6.55;;;2.85;;
73593;SDS011;62064;53.406;23.500;2022-10-20T06:16:37;5.18;;;2.72;;
73593;SDS011;62064;53.406;23.500;2022-10-20T06:19:03;6.60;;;2.78;;
73593;SDS011;62064;53.406;23.500;2022-10-20T06:21:31;6.28;;;2.92;;
73593;SDS011;62064;53.406;23.500;2022-10-20T06:23:59;5.75;;;3.00;;
73593;SDS011;62064;53.406;23.500;2022-10-20T06:26:27;5.38;;;2.97;;
73593;SDS011;62064;53.406;23.500;2022-10-20T06:28:58;4.80;;;2.75;;
73593;SDS011;62064;53.406;23.500;2022-10-20T06:31:26;3.78;;;2.17;;
73593;SDS011;62064;53.406;23.500;2022-10-20T06:33:55;6.20;;;2.90;;
73593;SDS011;62064;53.406;23.500;2022-10-20T06:36:23;4.13;;;2.38;;
73593;SDS011;62064;53.406;23.500;2022-10-20T06:38:53;4.63;;;2.40;;
73593;SDS011;62064;53.406;23.500;2022-10-20T06:41:21;6.53;;;2.78;;
73593;SDS011;62064;53.406;23.500;2022-10-20T06:43:47;5.60;;;2.83;;
73593;SDS011;62064;53.406;23.500;2022-10-20T06:46:15;4.70;;;2.70;;
73593;SDS011;62064;53.406;23.500;2022-10-20T06:48:43;4.32;;;2.50;;
73593;SDS011;62064;53.406;23.500;2022-10-20T06:53:41;5.72;;;2.33;;
73593;SDS011;62064;53.406;23.500;2022-10-20T06:56:16;5.70;;;3.22;;
73593;SDS011;62064;53.406;23.500;2022-10-20T06:58:45;4.97;;;2.45;;
73593;SDS011;62064;53.406;23.500;2022-10-20T07:01:19;4.72;;;2.40;;
73593;SDS011;62064;53.406;23.500;2022-10-20T07:06:18;4.05;;;2.20;;
73593;SDS011;62064;53.406;23.500;2022-10-20T07:08:46;5.40;;;2.63;;
73593;SDS011;62064;53.406;23.500;2022-10-20T07:11:14;5.35;;;2.40;;
73593;SDS011;62064;53.406;23.500;2022-10-20T07:13:42;4.15;;;2.30;;
73593;SDS011;62064;53.406;23.500;2022-10-20T07:16:12;4.97;;;2.50;;
73593;SDS011;62064;53.406;23.500;2022-10-20T07:21:10;4.70;;;2.58;;
73593;SDS011;62064;53.406;23.500;2022-10-20T07:23:41;3.95;;;2.20;;
73593;SDS011;62064;53.406;23.500;2022-10-20T07:26:10;5.75;;;2.42;;
73593;SDS011;62064;53.406;23.500;2022-10-20T07:28:39;5.68;;;2.75;;
73593;SDS011;62064;53.406;23.500;2022-10-20T07:31:12;6.32;;;2.97;;
73593;SDS011;62064;53.406;23.500;2022-10-20T07:33:40;4.15;;;2.05;;
73593;SDS011;62064;53.406;23.500;2022-10-20T07:36:11;7.97;;;2.70;;
73593;SDS011;62064;53.406;23.500;2022-10-20T07:38:41;4.60;;;2.10;;
73593;SDS011;62064;53.406;23.500;2022-10-20T07:41:08;4.50;;;2.25;;
73593;SDS011;62064;53.406;23.500;2022-10-20T07:43:35;4.47;;;2.28;;
73593;SDS011;62064;53.406;23.500;2022-10-20T07:46:04;4.13;;;2.13;;
73593;SDS011;62064;53.406;23.500;2022-10-20T07:48:30;6.40;;;2.30;;
73593;SDS011;62064;53.406;23.500;2022-10-20T07:51:16;4.47;;;2.10;;
73593;SDS011;62064;53.406;23.500;2022-10-20T07:53:56;3.90;;;2.25;;
73593;SDS011;62064;53.406;23.500;2022-10-20T07:56:31;3.65;;;1.98;;
73593;SDS011;62064;53.406;23.500;2022-10-20T07:58:59;5.72;;;2.10;;
73593;SDS011;62064;53.406;23.500;2022-10-20T08:01:26;4.43;;;2.20;;
73593;SDS011;62064;53.406;23.500;2022-10-20T08:03:52;4.25;;;2.08;;
73593;SDS011;62064;53.406;23.500;2022-10-20T08:06:19;4.00;;;1.75;;
73593;SDS011;62064;53.406;23.500;2022-10-20T08:08:46;5.55;;;1.98;;
73593;SDS011;62064;53.406;23.500;2022-10-20T08:11:13;3.90;;;2.00;;
73593;SDS011;62064;53.406;23.500;2022-10-20T08:13:39;5.78;;;2.30;;
73593;SDS011;62064;53.406;23.500;2022-10-20T08:16:06;4.45;;;2.10;;
73593;SDS011;62064;53.406;23.500;2022-10-20T08:18:33;5.57;;;2.08;;
73593;SDS011;62064;53.406;23.500;2022-10-20T08:21:11;4.22;;;2.60;;
73593;SDS011;62064;53.406;23.500;2022-10-20T08:26:07;5.55;;;2.20;;
73593;SDS011;62064;53.406;23.500;2022-10-20T08:28:33;4.32;;;2.10;;
73593;SDS011;62064;53.406;23.500;2022-10-20T08:31:03;5.70;;;2.17;;
73593;SDS011;62064;53.406;23.500;2022-10-20T08:33:31;5.22;;;2.25;;
73593;SDS011;62064;53.406;23.500;2022-10-20T08:36:05;5.05;;;2.60;;
73593;SDS011;62064;53.406;23.500;2022-10-20T08:38:34;5.93;;;3.25;;
73593;SDS011;62064;53.406;23.500;2022-10-20T08:41:01;5.50;;;3.42;;
73593;SDS011;62064;53.406;23.500;2022-10-20T08:43:31;6.03;;;3.65;;
73593;SDS011;62064;53.406;23.500;2022-10-20T08:46:03;6.65;;;3.53;;
73593;SDS011;62064;53.406;23.500;2022-10-20T08:48:30;10.38;;;4.63;;
73593;SDS011;62064;53.406;23.500;2022-10-20T08:50:59;9.32;;;4.72;;
73593;SDS011;62064;53.406;23.500;2022-10-20T08:53:25;8.93;;;4.45;;
73593;SDS011;62064;53.406;23.500;2022-10-20T08:55:53;7.15;;;4.00;;
73593;SDS011;62064;53.406;23.500;2022-10-20T08:58:21;7.13;;;3.90;;
73593;SDS011;62064;53.406;23.500;2022-10-20T09:00:54;10.15;;;3.75;;
73593;SDS011;62064;53.406;23.500;2022-10-20T09:03:23;7.95;;;3.92;;
73593;SDS011;62064;53.406;23.500;2022-10-20T09:06:27;8.13;;;4.07;;
73593;SDS011;62064;53.406;23.500;2022-10-20T09:08:47;7.80;;;3.95;;
73593;SDS011;62064;53.406;23.500;2022-10-20T09:14:12;7.70;;;3.50;;
73593;SDS011;62064;53.406;23.500;2022-10-20T09:16:51;6.15;;;3.75;;
73593;SDS011;62064;53.406;23.500;2022-10-20T09:19:18;7.40;;;3.97;;
73593;SDS011;62064;53.406;23.500;2022-10-20T09:21:47;7.45;;;3.65;;
73593;SDS011;62064;53.406;23.500;2022-10-20T09:24:56;7.88;;;3.83;;
73593;SDS011;62064;53.406;23.500;2022-10-20T09:31:33;9.38;;;4.70;;
73593;SDS011;62064;53.406;23.500;2022-10-20T09:39:38;9.38;;;4.85;;
73593;SDS011;62064;53.406;23.500;2022-10-20T09:42:26;12.23;;;5.43;;
73593;SDS011;62064;53.406;23.500;2022-10-20T09:46:31;11.18;;;5.65;;
73593;SDS011;62064;53.406;23.500;2022-10-20T09:49:04;10.85;;;5.57;;
73593;SDS011;62064;53.406;23.500;2022-10-20T09:51:31;11.85;;;6.55;;
73593;SDS011;62064;53.406;23.500;2022-10-20T09:54:03;11.57;;;5.93;;
73593;SDS011;62064;53.406;23.500;2022-10-20T10:00:36;10.25;;;5.53;;
73593;SDS011;62064;53.406;23.500;2022-10-20T10:03:13;9.80;;;5.55;;
73593;SDS011;62064;53.406;23.500;2022-10-20T10:05:55;10.63;;;5.28;;
73593;SDS011;62064;53.406;23.500;2022-10-20T10:08:27;10.43;;;5.78;;
73593;SDS011;62064;53.406;23.500;2022-10-20T10:11:12;11.75;;;5.63;;
73593;SDS011;62064;53.406;23.500;2022-10-20T10:13:42;9.80;;;5.15;;
73593;SDS011;62064;53.406;23.500;2022-10-20T10:16:11;9.80;;;4.82;;
73593;SDS011;62064;53.406;23.500;2022-10-20T10:18:40;10.05;;;5.10;;
73593;SDS011;62064;53.406;23.500;2022-10-20T10:21:09;10.63;;;4.57;;
73593;SDS011;62064;53.406;23.500;2022-10-20T10:23:50;10.18;;;5.00;;
73593;SDS011;62064;53.406;23.500;2022-10-20T10:29:19;9.88;;;4.60;;
73593;SDS011;62064;53.406;23.500;2022-10-20T10:31:52;8.93;;;4.65;;
73593;SDS011;62064;53.406;23.500;2022-10-20T10:37:16;10.35;;;4.57;;
73593;SDS011;62064;53.406;23.500;2022-10-20T10:39:43;9.00;;;4.10;;
73593;SDS011;62064;53.406;23.500;2022-10-20T10:42:18;8.80;;;4.15;;
73593;SDS011;62064;53.406;23.500;2022-10-20T10:56:53;8.13;;;3.95;;
73593;SDS011;62064;53.406;23.500;2022-10-20T11:11:22;7.10;;;3.45;;
73593;SDS011;62064;53.406;23.500;2022-10-20T11:17:45;6.97;;;3.10;;
73593;SDS011;62064;53.406;23.500;2022-10-20T11:20:20;6.18;;;2.88;;
73593;SDS011;62064;53.406;23.500;2022-10-20T11:25:54;5.90;;;3.10;;
73593;SDS011;62064;53.406;23.500;2022-10-20T11:28:33;6.88;;;3.03;;
73593;SDS011;62064;53.406;23.500;2022-10-20T11:31:32;5.97;;;2.97;;
73593;SDS011;62064;53.406;23.500;2022-10-20T11:34:12;6.45;;;2.92;;
73593;SDS011;62064;53.406;23.500;2022-10-20T11:36:52;5.80;;;2.67;;
73593;SDS011;62064;53.406;23.500;2022-10-20T11:39:33;6.90;;;2.72;;
73593;SDS011;62064;53.406;23.500;2022-10-20T11:42:27;6.80;;;3.40;;
73593;SDS011;62064;53.406;23.500;2022-10-20T11:44:55;6.93;;;3.10;;
73593;SDS011;62064;53.406;23.500;2022-10-20T11:47:33;4.40;;;2.30;;
73593;SDS011;62064;53.406;23.500;2022-10-20T11:50:04;5.75;;;2.53;;
73593;SDS011;62064;53.406;23.500;2022-10-20T12:06:22;7.38;;;2.58;;
73593;SDS011;62064;53.406;23.500;2022-10-20T12:12:06;6.72;;;2.22;;
73593;SDS011;62064;53.406;23.500;2022-10-20T12:14:42;4.90;;;2.25;;
73593;SDS011;62064;53.406;23.500;2022-10-20T12:22:52;6.35;;;2.92;;
73593;SDS011;62064;53.406;23.500;2022-10-20T12:33:39;6.57;;;2.13;;
73593;SDS011;62064;53.406;23.500;2022-10-20T12:36:12;3.92;;;2.20;;
73593;SDS011;62064;53.406;23.500;2022-10-20T12:38:45;5.60;;;2.28;;
73593;SDS011;62064;53.406;23.500;2022-10-20T12:41:28;4.95;;;2.55;;
73593;SDS011;62064;53.406;23.500;2022-10-20T12:44:00;4.00;;;2.35;;
73593;SDS011;62064;53.406;23.500;2022-10-20T12:46:30;4.32;;;2.50;;
73593;SDS011;62064;53.406;23.500;2022-10-20T12:48:59;4.70;;;2.30;;
73593;SDS011;62064;53.406;23.500;2022-10-20T12:51:49;8.25;;;2.45;;
73593;SDS011;62064;53.406;23.500;2022-10-20T12:57:01;8.38;;;3.30;;
73593;SDS011;62064;53.406;23.500;2022-10-20T12:59:34;6.38;;;2.72;;
73593;SDS011;62064;53.406;23.500;2022-10-20T13:23:07;8.52;;;2.88;;
73593;SDS011;62064;53.406;23.500;2022-10-20T13:25:43;7.50;;;2.90;;
73593;SDS011;62064;53.406;23.500;2022-10-20T13:28:15;6.82;;;3.00;;
73593;SDS011;62064;53.406;23.500;2022-10-20T13:33:32;10.43;;;2.92;;
73593;SDS011;62064;53.406;23.500;2022-10-20T13:36:07;7.30;;;2.92;;
73593;SDS011;62064;53.406;23.500;2022-10-20T13:44:37;7.65;;;3.05;;
73593;SDS011;62064;53.406;23.500;2022-10-20T13:52:52;8.05;;;2.75;;
73593;SDS011;62064;53.406;23.500;2022-10-20T13:55:26;7.32;;;3.25;;
73593;SDS011;62064;53.406;23.500;2022-10-20T13:58:13;7.93;;;2.78;;
73593;SDS011;62064;53.406;23.500;2022-10-20T14:00:54;7.20;;;3.47;;
73593;SDS011;62064;53.406;23.500;2022-10-20T14:03:26;6.63;;;2.92;;
73593;SDS011;62064;53.406;23.500;2022-10-20T14:05:55;7.60;;;3.03;;
73593;SDS011;62064;53.406;23.500;2022-10-20T14:08:23;7.32;;;3.03;;
73593;SDS011;62064;53.406;23.500;2022-10-20T14:10:54;6.80;;;2.67;;
73593;SDS011;62064;53.406;23.500;2022-10-20T14:13:24;6.63;;;3.10;;
73593;SDS011;62064;53.406;23.500;2022-10-20T14:15:54;7.25;;;3.05;;
73593;SDS011;62064;53.406;23.500;2022-10-20T14:18:26;7.07;;;3.03;;
73593;SDS011;62064;53.406;23.500;2022-10-20T14:20:56;8.10;;;3.05;;
73593;SDS011;62064;53.406;23.500;2022-10-20T14:23:24;7.97;;;3.38;;
73593;SDS011;62064;53.406;23.500;2022-10-20T14:25:55;5.53;;;2.83;;
73593;SDS011;62064;53.406;23.500;2022-10-20T14:28:21;6.18;;;2.70;;
73593;SDS011;62064;53.406;23.500;2022-10-20T14:30:52;6.93;;;2.70;;
73593;SDS011;62064;53.406;23.500;2022-10-20T14:33:19;6.65;;;2.40;;
73593;SDS011;62064;53.406;23.500;2022-10-20T14:35:54;7.72;;;3.08;;
73593;SDS011;62064;53.406;23.500;2022-10-20T14:38:24;5.55;;;2.63;;
73593;SDS011;62064;53.406;23.500;2022-10-20T14:40:56;6.03;;;2.40;;
73593;SDS011;62064;53.406;23.500;2022-10-20T14:43:33;6.45;;;3.08;;
73593;SDS011;62064;53.406;23.500;2022-10-20T14:46:10;5.72;;;2.53;;
73593;SDS011;62064;53.406;23.500;2022-10-20T14:48:42;6.90;;;2.35;;
73593;SDS011;62064;53.406;23.500;2022-10-20T14:56:47;7.18;;;3.17;;
73593;SDS011;62064;53.406;23.500;2022-10-20T14:59:13;6.10;;;2.45;;
73593;SDS011;62064;53.406;23.500;2022-10-20T15:04:40;6.38;;;3.13;;
73593;SDS011;62064;53.406;23.500;2022-10-20T15:07:18;7.03;;;2.60;;
73593;SDS011;62064;53.406;23.500;2022-10-20T15:09:48;5.57;;;2.58;;
73593;SDS011;62064;53.406;23.500;2022-10-20T15:12:21;6.85;;;2.90;;
73593;SDS011;62064;53.406;23.500;2022-10-20T15:14:58;6.25;;;2.67;;
73593;SDS011;62064;53.406;23.500;2022-10-20T15:17:37;5.43;;;2.38;;
73593;SDS011;62064;53.406;23.500;2022-10-20T15:23:04;5.88;;;2.63;;
73593;SDS011;62064;53.406;23.500;2022-10-20T15:25:39;6.38;;;2.80;;
73593;SDS011;62064;53.406;23.500;2022-10-20T15:30:50;7.20;;;3.10;;
73593;SDS011;62064;53.406;23.500;2022-10-20T15:33:17;7.75;;;3.10;;
73593;SDS011;62064;53.406;23.500;2022-10-20T15:35:43;6.53;;;2.78;;
73593;SDS011;62064;53.406;23.500;2022-10-20T15:38:12;5.85;;;2.85;;
73593;SDS011;62064;53.406;23.500;2022-10-20T15:40:38;4.90;;;2.38;;
73593;SDS011;62064;53.406;23.500;2022-10-20T15:43:04;7.88;;;2.65;;
73593;SDS011;62064;53.406;23.500;2022-10-20T15:45:32;7.55;;;2.90;;
73593;SDS011;62064;53.406;23.500;2022-10-20T15:48:03;8.23;;;2.75;;
73593;SDS011;62064;53.406;23.500;2022-10-20T15:50:29;5.25;;;2.63;;
73593;SDS011;62064;53.406;23.500;2022-10-20T15:52:56;6.75;;;2.78;;
73593;SDS011;62064;53.406;23.500;2022-10-20T15:55:25;6.22;;;2.83;;
73593;SDS011;62064;53.406;23.500;2022-10-20T15:57:55;6.20;;;3.00;;
73593;SDS011;62064;53.406;23.500;2022-10-20T16:00:22;6.25;;;2.78;;
73593;SDS011;62064;53.406;23.500;2022-10-20T16:02:50;5.60;;;2.50;;
73593;SDS011;62064;53.406;23.500;2022-10-20T16:05:17;5.50;;;2.90;;
73593;SDS011;62064;53.406;23.500;2022-10-20T16:07:46;6.05;;;2.80;;
73593;SDS011;62064;53.406;23.500;2022-10-20T16:10:12;5.25;;;2.63;;
73593;SDS011;62064;53.406;23.500;2022-10-20T16:12:39;6.72;;;3.15;;
73593;SDS011;62064;53.406;23.500;2022-10-20T16:15:06;6.35;;;3.17;;
73593;SDS011;62064;53.406;23.500;2022-10-20T16:17:35;5.10;;;2.63;;
73593;SDS011;62064;53.406;23.500;2022-10-20T16:20:01;7.25;;;3.30;;
73593;SDS011;62064;53.406;23.500;2022-10-20T16:22:30;6.40;;;2.65;;
73593;SDS011;62064;53.406;23.500;2022-10-20T16:24:56;6.47;;;3.15;;
73593;SDS011;62064;53.406;23.500;2022-10-20T16:27:30;5.28;;;2.70;;
73593;SDS011;62064;53.406;23.500;2022-10-20T16:29:57;7.53;;;3.85;;
73593;SDS011;62064;53.406;23.500;2022-10-20T16:32:26;5.63;;;2.85;;
73593;SDS011;62064;53.406;23.500;2022-10-20T16:34:52;5.07;;;2.95;;
73593;SDS011;62064;53.406;23.500;2022-10-20T16:37:18;10.00;;;3.47;;
73593;SDS011;62064;53.406;23.500;2022-10-20T16:39:44;7.70;;;3.10;;
73593;SDS011;62064;53.406;23.500;2022-10-20T16:42:11;7.07;;;3.30;;
73593;SDS011;62064;53.406;23.500;2022-10-20T16:44:37;7.25;;;4.00;;
73593;SDS011;62064;53.406;23.500;2022-10-20T16:47:03;7.32;;;3.40;;
73593;SDS011;62064;53.406;23.500;2022-10-20T16:49:29;7.22;;;3.33;;
73593;SDS011;62064;53.406;23.500;2022-10-20T16:51:55;7.60;;;3.42;;
73593;SDS011;62064;53.406;23.500;2022-10-20T16:54:22;7.80;;;4.00;;
73593;SDS011;62064;53.406;23.500;2022-10-20T16:56:48;7.32;;;3.78;;
73593;SDS011;62064;53.406;23.500;2022-10-20T16:59:14;7.97;;;3.40;;
73593;SDS011;62064;53.406;23.500;2022-10-20T17:01:40;7.47;;;3.38;;
73593;SDS011;62064;53.406;23.500;2022-10-20T17:04:06;7.13;;;3.47;;
73593;SDS011;62064;53.406;23.500;2022-10-20T17:06:35;7.15;;;3.38;;
73593;SDS011;62064;53.406;23.500;2022-10-20T17:09:01;7.78;;;3.85;;
73593;SDS011;62064;53.406;23.500;2022-10-20T17:11:28;6.28;;;2.85;;
73593;SDS011;62064;53.406;23.500;2022-10-20T17:13:56;8.52;;;3.85;;
73593;SDS011;62064;53.406;23.500;2022-10-20T17:16:24;6.97;;;3.50;;
73593;SDS011;62064;53.406;23.500;2022-10-20T17:18:53;8.40;;;3.83;;
73593;SDS011;62064;53.406;23.500;2022-10-20T17:21:21;7.45;;;3.70;;
73593;SDS011;62064;53.406;23.500;2022-10-20T17:23:47;6.97;;;3.65;;
73593;SDS011;62064;53.406;23.500;2022-10-20T17:26:15;7.97;;;3.58;;
73593;SDS011;62064;53.406;23.500;2022-10-20T17:28:43;7.03;;;3.78;;
73593;SDS011;62064;53.406;23.500;2022-10-20T17:31:11;7.28;;;4.00;;
73593;SDS011;62064;53.406;23.500;2022-10-20T17:33:39;8.25;;;4.07;;
73593;SDS011;62064;53.406;23.500;2022-10-20T17:36:06;9.82;;;4.32;;
73593;SDS011;62064;53.406;23.500;2022-10-20T17:38:32;8.25;;;4.05;;
73593;SDS011;62064;53.406;23.500;2022-10-20T17:43:29;7.82;;;4.82;;
73593;SDS011;62064;53.406;23.500;2022-10-20T17:45:57;8.45;;;4.78;;
73593;SDS011;62064;53.406;23.500;2022-10-20T17:48:31;8.45;;;4.30;;
73593;SDS011;62064;53.406;23.500;2022-10-20T17:51:19;8.38;;;4.50;;
73593;SDS011;62064;53.406;23.500;2022-10-20T17:53:47;7.20;;;4.20;;